Rochelle, Illinois
Current Conditions -  °F | °C
As of 9:55 AM on Sunday 21 Dec 2014 (Local Time) from KRPJ Reporting Station
Haze Haze  
Wind Chill: 23°   Ceiling: 3600
Heat Index: 33°   Visibility: 4mi
Dew Point: 31°   Wind: 14mph
Humidity: 94%   Direction: 160°SSE
Pressure: 30.15"   Gusts: 20mph
Location:  41.93°N, 89.07°W
Report Text: KRPJ 211555Z AUTO 16012G17KT 4SM BR OVC036 00/M01 A3015 RMK AO2 T00031006
Loading
Personal Weather Stations






























Interactive Weather Map New forecast layout! Learn more

10-Day Weather Forecast

Advertisements
Track Severe Weather on mobile